sensor_id;sensor_type;location;lat;lon;timestamp;P1;durP1;ratioP1;P2;durP2;ratioP2
46781;SDS011;32541;46.298;11.506;2023-10-19T00:00:19;12.43;;;10.45;;
46781;SDS011;32541;46.298;11.506;2023-10-19T00:02:45;15.30;;;12.50;;
46781;SDS011;32541;46.298;11.506;2023-10-19T00:05:12;16.02;;;12.07;;
46781;SDS011;32541;46.298;11.506;2023-10-19T00:07:40;13.95;;;11.15;;
46781;SDS011;32541;46.298;11.506;2023-10-19T00:10:06;14.50;;;11.57;;
46781;SDS011;32541;46.298;11.506;2023-10-19T00:12:32;15.23;;;11.80;;
46781;SDS011;32541;46.298;11.506;2023-10-19T00:14:57;15.05;;;11.27;;
46781;SDS011;32541;46.298;11.506;2023-10-19T00:17:24;12.82;;;10.52;;
46781;SDS011;32541;46.298;11.506;2023-10-19T00:19:52;12.95;;;10.43;;
46781;SDS011;32541;46.298;11.506;2023-10-19T00:22:34;14.02;;;11.13;;
46781;SDS011;32541;46.298;11.506;2023-10-19T00:25:01;15.57;;;12.07;;
46781;SDS011;32541;46.298;11.506;2023-10-19T00:27:28;17.05;;;12.60;;
46781;SDS011;32541;46.298;11.506;2023-10-19T00:29:54;19.63;;;12.65;;
46781;SDS011;32541;46.298;11.506;2023-10-19T00:32:27;20.13;;;14.23;;
46781;SDS011;32541;46.298;11.506;2023-10-19T00:34:54;21.58;;;14.75;;
46781;SDS011;32541;46.298;11.506;2023-10-19T00:37:20;17.50;;;13.38;;
46781;SDS011;32541;46.298;11.506;2023-10-19T00:39:52;17.15;;;13.13;;
46781;SDS011;32541;46.298;11.506;2023-10-19T00:42:21;17.55;;;13.30;;
46781;SDS011;32541;46.298;11.506;2023-10-19T00:44:55;17.67;;;12.40;;
46781;SDS011;32541;46.298;11.506;2023-10-19T00:47:27;16.57;;;12.97;;
46781;SDS011;32541;46.298;11.506;2023-10-19T00:49:58;16.63;;;13.15;;
46781;SDS011;32541;46.298;11.506;2023-10-19T00:52:28;18.83;;;12.98;;
46781;SDS011;32541;46.298;11.506;2023-10-19T00:54:56;18.15;;;12.85;;
46781;SDS011;32541;46.298;11.506;2023-10-19T00:57:23;17.17;;;12.35;;
46781;SDS011;32541;46.298;11.506;2023-10-19T00:59:59;18.88;;;13.13;;
46781;SDS011;32541;46.298;11.506;2023-10-19T01:02:46;18.35;;;12.13;;
46781;SDS011;32541;46.298;11.506;2023-10-19T01:05:13;17.67;;;11.70;;
46781;SDS011;32541;46.298;11.506;2023-10-19T01:07:39;13.85;;;11.50;;
46781;SDS011;32541;46.298;11.506;2023-10-19T01:10:05;18.48;;;12.05;;
46781;SDS011;32541;46.298;11.506;2023-10-19T01:12:44;15.32;;;11.48;;
46781;SDS011;32541;46.298;11.506;2023-10-19T01:15:13;15.32;;;11.18;;
46781;SDS011;32541;46.298;11.506;2023-10-19T01:18:07;11.38;;;9.68;;
46781;SDS011;32541;46.298;11.506;2023-10-19T01:20:35;13.85;;;9.80;;
46781;SDS011;32541;46.298;11.506;2023-10-19T01:23:17;12.70;;;10.07;;
46781;SDS011;32541;46.298;11.506;2023-10-19T01:28:26;13.50;;;9.60;;
46781;SDS011;32541;46.298;11.506;2023-10-19T01:31:08;11.75;;;8.70;;
46781;SDS011;32541;46.298;11.506;2023-10-19T01:34:07;11.98;;;8.65;;
46781;SDS011;32541;46.298;11.506;2023-10-19T01:36:34;9.85;;;8.15;;
46781;SDS011;32541;46.298;11.506;2023-10-19T01:39:10;10.77;;;8.82;;
46781;SDS011;32541;46.298;11.506;2023-10-19T01:41:36;11.65;;;8.07;;
46781;SDS011;32541;46.298;11.506;2023-10-19T01:44:02;10.63;;;7.30;;
46781;SDS011;32541;46.298;11.506;2023-10-19T01:46:38;10.35;;;7.75;;
46781;SDS011;32541;46.298;11.506;2023-10-19T01:49:04;10.57;;;7.55;;
46781;SDS011;32541;46.298;11.506;2023-10-19T01:51:31;11.40;;;7.68;;
46781;SDS011;32541;46.298;11.506;2023-10-19T01:54:03;11.13;;;8.15;;
46781;SDS011;32541;46.298;11.506;2023-10-19T01:56:30;9.93;;;7.70;;
46781;SDS011;32541;46.298;11.506;2023-10-19T01:58:58;10.30;;;7.47;;
46781;SDS011;32541;46.298;11.506;2023-10-19T02:01:24;9.07;;;7.22;;
46781;SDS011;32541;46.298;11.506;2023-10-19T02:03:52;8.38;;;6.82;;
46781;SDS011;32541;46.298;11.506;2023-10-19T02:06:25;9.13;;;6.65;;
46781;SDS011;32541;46.298;11.506;2023-10-19T02:08:58;9.20;;;7.25;;
46781;SDS011;32541;46.298;11.506;2023-10-19T02:12:03;9.80;;;5.97;;
46781;SDS011;32541;46.298;11.506;2023-10-19T02:14:31;9.25;;;6.53;;
46781;SDS011;32541;46.298;11.506;2023-10-19T02:16:58;7.00;;;4.80;;
46781;SDS011;32541;46.298;11.506;2023-10-19T02:19:28;5.53;;;4.60;;
46781;SDS011;32541;46.298;11.506;2023-10-19T02:21:57;8.00;;;5.78;;
46781;SDS011;32541;46.298;11.506;2023-10-19T02:24:24;9.40;;;7.05;;
46781;SDS011;32541;46.298;11.506;2023-10-19T02:26:56;7.60;;;6.03;;
46781;SDS011;32541;46.298;11.506;2023-10-19T02:29:22;7.07;;;5.10;;
46781;SDS011;32541;46.298;11.506;2023-10-19T02:31:48;8.55;;;6.13;;
46781;SDS011;32541;46.298;11.506;2023-10-19T02:34:14;6.35;;;5.25;;
46781;SDS011;32541;46.298;11.506;2023-10-19T02:36:41;5.90;;;4.68;;
46781;SDS011;32541;46.298;11.506;2023-10-19T02:39:08;6.97;;;4.75;;
46781;SDS011;32541;46.298;11.506;2023-10-19T02:41:38;8.27;;;4.93;;
46781;SDS011;32541;46.298;11.506;2023-10-19T02:44:12;6.85;;;5.40;;
46781;SDS011;32541;46.298;11.506;2023-10-19T02:46:42;7.93;;;4.72;;
46781;SDS011;32541;46.298;11.506;2023-10-19T02:49:08;7.40;;;5.15;;
46781;SDS011;32541;46.298;11.506;2023-10-19T02:51:37;7.20;;;5.45;;
46781;SDS011;32541;46.298;11.506;2023-10-19T02:54:03;7.80;;;5.95;;
46781;SDS011;32541;46.298;11.506;2023-10-19T02:56:30;7.53;;;5.53;;
46781;SDS011;32541;46.298;11.506;2023-10-19T02:58:56;6.55;;;5.47;;
46781;SDS011;32541;46.298;11.506;2023-10-19T03:01:27;9.45;;;6.38;;
46781;SDS011;32541;46.298;11.506;2023-10-19T03:03:56;8.65;;;6.45;;
46781;SDS011;32541;46.298;11.506;2023-10-19T03:06:25;8.45;;;5.60;;
46781;SDS011;32541;46.298;11.506;2023-10-19T03:08:56;9.00;;;6.20;;
46781;SDS011;32541;46.298;11.506;2023-10-19T03:11:29;8.88;;;6.82;;
46781;SDS011;32541;46.298;11.506;2023-10-19T03:13:57;7.55;;;6.22;;
46781;SDS011;32541;46.298;11.506;2023-10-19T03:16:23;8.60;;;6.40;;
46781;SDS011;32541;46.298;11.506;2023-10-19T03:18:49;10.68;;;5.47;;
46781;SDS011;32541;46.298;11.506;2023-10-19T03:21:18;11.80;;;7.72;;
46781;SDS011;32541;46.298;11.506;2023-10-19T03:23:48;10.02;;;7.10;;
46781;SDS011;32541;46.298;11.506;2023-10-19T03:26:15;8.13;;;6.50;;
46781;SDS011;32541;46.298;11.506;2023-10-19T03:28:47;8.13;;;6.22;;
46781;SDS011;32541;46.298;11.506;2023-10-19T03:31:32;7.45;;;5.93;;
46781;SDS011;32541;46.298;11.506;2023-10-19T03:33:58;9.20;;;6.07;;
46781;SDS011;32541;46.298;11.506;2023-10-19T03:36:24;9.13;;;6.75;;
46781;SDS011;32541;46.298;11.506;2023-10-19T03:38:51;9.25;;;6.65;;
46781;SDS011;32541;46.298;11.506;2023-10-19T03:41:18;8.45;;;5.95;;
46781;SDS011;32541;46.298;11.506;2023-10-19T03:43:50;8.45;;;6.32;;
46781;SDS011;32541;46.298;11.506;2023-10-19T03:46:18;10.70;;;6.80;;
46781;SDS011;32541;46.298;11.506;2023-10-19T03:48:54;8.18;;;7.32;;
46781;SDS011;32541;46.298;11.506;2023-10-19T03:51:25;7.65;;;6.55;;
46781;SDS011;32541;46.298;11.506;2023-10-19T03:53:51;10.70;;;7.00;;
46781;SDS011;32541;46.298;11.506;2023-10-19T03:56:23;16.70;;;11.85;;
46781;SDS011;32541;46.298;11.506;2023-10-19T03:58:49;26.42;;;17.08;;
46781;SDS011;32541;46.298;11.506;2023-10-19T04:01:16;13.68;;;9.85;;
46781;SDS011;32541;46.298;11.506;2023-10-19T04:03:44;11.40;;;8.90;;
46781;SDS011;32541;46.298;11.506;2023-10-19T04:06:10;14.98;;;11.05;;
46781;SDS011;32541;46.298;11.506;2023-10-19T04:08:39;17.13;;;11.77;;
46781;SDS011;32541;46.298;11.506;2023-10-19T04:11:05;16.77;;;11.10;;
46781;SDS011;32541;46.298;11.506;2023-10-19T04:13:37;12.30;;;8.15;;
46781;SDS011;32541;46.298;11.506;2023-10-19T04:16:03;14.30;;;10.55;;
46781;SDS011;32541;46.298;11.506;2023-10-19T04:18:31;12.77;;;9.05;;
46781;SDS011;32541;46.298;11.506;2023-10-19T04:20:56;10.95;;;8.20;;
46781;SDS011;32541;46.298;11.506;2023-10-19T04:23:23;10.57;;;8.00;;
46781;SDS011;32541;46.298;11.506;2023-10-19T04:25:52;9.73;;;7.47;;
46781;SDS011;32541;46.298;11.506;2023-10-19T04:28:29;8.68;;;6.07;;
46781;SDS011;32541;46.298;11.506;2023-10-19T04:31:09;8.23;;;5.55;;
46781;SDS011;32541;46.298;11.506;2023-10-19T04:33:38;8.30;;;6.10;;
46781;SDS011;32541;46.298;11.506;2023-10-19T04:36:06;9.88;;;6.10;;
46781;SDS011;32541;46.298;11.506;2023-10-19T04:38:35;9.82;;;6.82;;
46781;SDS011;32541;46.298;11.506;2023-10-19T04:41:08;8.93;;;6.40;;
46781;SDS011;32541;46.298;11.506;2023-10-19T04:43:34;14.23;;;8.98;;
46781;SDS011;32541;46.298;11.506;2023-10-19T04:46:10;17.02;;;12.75;;
46781;SDS011;32541;46.298;11.506;2023-10-19T04:48:37;16.77;;;12.15;;
46781;SDS011;32541;46.298;11.506;2023-10-19T04:51:05;16.02;;;13.15;;
46781;SDS011;32541;46.298;11.506;2023-10-19T04:53:31;14.50;;;11.30;;
46781;SDS011;32541;46.298;11.506;2023-10-19T04:55:57;15.32;;;11.80;;
46781;SDS011;32541;46.298;11.506;2023-10-19T04:58:25;15.38;;;11.05;;
46781;SDS011;32541;46.298;11.506;2023-10-19T05:00:53;16.88;;;12.07;;
46781;SDS011;32541;46.298;11.506;2023-10-19T05:03:19;17.65;;;11.25;;
46781;SDS011;32541;46.298;11.506;2023-10-19T05:05:44;16.25;;;11.68;;
46781;SDS011;32541;46.298;11.506;2023-10-19T05:08:10;19.52;;;11.55;;
46781;SDS011;32541;46.298;11.506;2023-10-19T05:10:36;13.77;;;11.40;;
46781;SDS011;32541;46.298;11.506;2023-10-19T05:13:02;18.40;;;13.93;;
46781;SDS011;32541;46.298;11.506;2023-10-19T05:15:28;75.57;;;45.17;;
46781;SDS011;32541;46.298;11.506;2023-10-19T05:17:54;60.15;;;38.22;;
46781;SDS011;32541;46.298;11.506;2023-10-19T05:20:20;18.77;;;14.73;;
46781;SDS011;32541;46.298;11.506;2023-10-19T05:22:46;15.77;;;11.82;;
46781;SDS011;32541;46.298;11.506;2023-10-19T05:25:12;15.23;;;11.75;;
46781;SDS011;32541;46.298;11.506;2023-10-19T05:27:38;16.38;;;13.38;;
46781;SDS011;32541;46.298;11.506;2023-10-19T05:30:04;18.23;;;14.07;;
46781;SDS011;32541;46.298;11.506;2023-10-19T05:32:30;13.73;;;9.70;;
46781;SDS011;32541;46.298;11.506;2023-10-19T05:34:56;20.10;;;14.77;;
46781;SDS011;32541;46.298;11.506;2023-10-19T05:37:22;20.02;;;14.50;;
46781;SDS011;32541;46.298;11.506;2023-10-19T05:39:47;20.80;;;14.85;;
46781;SDS011;32541;46.298;11.506;2023-10-19T05:42:17;17.83;;;12.68;;
46781;SDS011;32541;46.298;11.506;2023-10-19T05:44:42;16.58;;;11.60;;
46781;SDS011;32541;46.298;11.506;2023-10-19T05:47:08;15.60;;;12.50;;
46781;SDS011;32541;46.298;11.506;2023-10-19T05:49:33;14.27;;;10.90;;
46781;SDS011;32541;46.298;11.506;2023-10-19T05:51:59;18.15;;;12.93;;
46781;SDS011;32541;46.298;11.506;2023-10-19T05:54:24;13.45;;;11.02;;
46781;SDS011;32541;46.298;11.506;2023-10-19T05:56:50;14.50;;;11.23;;
46781;SDS011;32541;46.298;11.506;2023-10-19T05:59:16;16.30;;;12.45;;
46781;SDS011;32541;46.298;11.506;2023-10-19T06:01:42;16.05;;;11.07;;
46781;SDS011;32541;46.298;11.506;2023-10-19T06:04:11;13.45;;;10.73;;
46781;SDS011;32541;46.298;11.506;2023-10-19T06:06:37;13.38;;;9.93;;
46781;SDS011;32541;46.298;11.506;2023-10-19T06:09:03;12.23;;;9.38;;
46781;SDS011;32541;46.298;11.506;2023-10-19T06:11:33;12.40;;;9.25;;
46781;SDS011;32541;46.298;11.506;2023-10-19T06:13:59;12.18;;;9.32;;
46781;SDS011;32541;46.298;11.506;2023-10-19T06:16:25;13.73;;;9.00;;
46781;SDS011;32541;46.298;11.506;2023-10-19T06:18:50;13.60;;;10.18;;
46781;SDS011;32541;46.298;11.506;2023-10-19T06:21:19;13.48;;;11.20;;
46781;SDS011;32541;46.298;11.506;2023-10-19T06:23:44;14.98;;;11.85;;
46781;SDS011;32541;46.298;11.506;2023-10-19T06:26:10;17.75;;;13.20;;
46781;SDS011;32541;46.298;11.506;2023-10-19T06:28:39;17.67;;;11.70;;
46781;SDS011;32541;46.298;11.506;2023-10-19T06:31:06;20.88;;;14.57;;
46781;SDS011;32541;46.298;11.506;2023-10-19T06:33:32;18.13;;;14.88;;
46781;SDS011;32541;46.298;11.506;2023-10-19T06:36:01;16.77;;;13.43;;
46781;SDS011;32541;46.298;11.506;2023-10-19T06:38:28;26.65;;;17.38;;
46781;SDS011;32541;46.298;11.506;2023-10-19T06:40:56;27.55;;;18.58;;
46781;SDS011;32541;46.298;11.506;2023-10-19T06:43:22;28.33;;;19.65;;
46781;SDS011;32541;46.298;11.506;2023-10-19T06:45:52;26.08;;;18.33;;
46781;SDS011;32541;46.298;11.506;2023-10-19T06:48:20;20.63;;;14.88;;
46781;SDS011;32541;46.298;11.506;2023-10-19T06:50:46;23.65;;;15.82;;
46781;SDS011;32541;46.298;11.506;2023-10-19T06:53:11;19.92;;;14.35;;
46781;SDS011;32541;46.298;11.506;2023-10-19T06:55:36;19.48;;;14.15;;
46781;SDS011;32541;46.298;11.506;2023-10-19T06:58:02;18.75;;;14.10;;
46781;SDS011;32541;46.298;11.506;2023-10-19T07:00:29;18.35;;;14.13;;
46781;SDS011;32541;46.298;11.506;2023-10-19T07:02:55;16.33;;;11.90;;
46781;SDS011;32541;46.298;11.506;2023-10-19T07:05:22;13.70;;;10.90;;
46781;SDS011;32541;46.298;11.506;2023-10-19T07:07:49;12.70;;;9.63;;
46781;SDS011;32541;46.298;11.506;2023-10-19T07:10:20;13.20;;;10.10;;
46781;SDS011;32541;46.298;11.506;2023-10-19T07:12:46;18.20;;;11.82;;
46781;SDS011;32541;46.298;11.506;2023-10-19T07:15:13;17.48;;;12.10;;
46781;SDS011;32541;46.298;11.506;2023-10-19T07:17:42;14.57;;;10.68;;
46781;SDS011;32541;46.298;11.506;2023-10-19T07:20:08;13.68;;;9.98;;
46781;SDS011;32541;46.298;11.506;2023-10-19T07:22:54;25.02;;;10.40;;
46781;SDS011;32541;46.298;11.506;2023-10-19T07:25:20;16.83;;;9.95;;
46781;SDS011;32541;46.298;11.506;2023-10-19T07:27:50;13.25;;;9.40;;
46781;SDS011;32541;46.298;11.506;2023-10-19T07:30:19;17.13;;;9.15;;
46781;SDS011;32541;46.298;11.506;2023-10-19T07:32:51;19.33;;;9.43;;
46781;SDS011;32541;46.298;11.506;2023-10-19T07:35:23;14.45;;;9.23;;
46781;SDS011;32541;46.298;11.506;2023-10-19T07:37:51;10.48;;;8.27;;
46781;SDS011;32541;46.298;11.506;2023-10-19T07:40:16;13.05;;;8.20;;
46781;SDS011;32541;46.298;11.506;2023-10-19T07:42:43;14.35;;;8.07;;
46781;SDS011;32541;46.298;11.506;2023-10-19T07:45:08;10.07;;;7.70;;
46781;SDS011;32541;46.298;11.506;2023-10-19T07:47:37;13.70;;;10.95;;
46781;SDS011;32541;46.298;11.506;2023-10-19T07:50:05;13.07;;;10.40;;
46781;SDS011;32541;46.298;11.506;2023-10-19T07:52:37;12.35;;;10.13;;
46781;SDS011;32541;46.298;11.506;2023-10-19T07:55:04;12.65;;;9.82;;
46781;SDS011;32541;46.298;11.506;2023-10-19T07:57:30;14.40;;;10.15;;
46781;SDS011;32541;46.298;11.506;2023-10-19T07:59:55;14.85;;;10.20;;
46781;SDS011;32541;46.298;11.506;2023-10-19T08:02:21;12.63;;;9.65;;
46781;SDS011;32541;46.298;11.506;2023-10-19T08:04:49;13.48;;;10.55;;
46781;SDS011;32541;46.298;11.506;2023-10-19T08:07:16;15.27;;;9.93;;
46781;SDS011;32541;46.298;11.506;2023-10-19T08:09:42;12.95;;;9.27;;
46781;SDS011;32541;46.298;11.506;2023-10-19T08:12:08;12.52;;;8.60;;
46781;SDS011;32541;46.298;11.506;2023-10-19T08:14:34;11.77;;;8.80;;
46781;SDS011;32541;46.298;11.506;2023-10-19T08:17:00;12.73;;;8.82;;
46781;SDS011;32541;46.298;11.506;2023-10-19T08:19:27;16.23;;;10.85;;
46781;SDS011;32541;46.298;11.506;2023-10-19T08:21:52;34.67;;;15.18;;
46781;SDS011;32541;46.298;11.506;2023-10-19T08:24:18;15.95;;;11.23;;
46781;SDS011;32541;46.298;11.506;2023-10-19T08:26:46;19.65;;;11.35;;
46781;SDS011;32541;46.298;11.506;2023-10-19T08:29:12;14.65;;;10.77;;
46781;SDS011;32541;46.298;11.506;2023-10-19T08:31:39;14.25;;;11.38;;
46781;SDS011;32541;46.298;11.506;2023-10-19T08:34:05;13.88;;;10.57;;
46781;SDS011;32541;46.298;11.506;2023-10-19T08:36:31;13.98;;;8.85;;
46781;SDS011;32541;46.298;11.506;2023-10-19T08:38:56;12.05;;;9.35;;
46781;SDS011;32541;46.298;11.506;2023-10-19T08:41:22;12.52;;;9.35;;
46781;SDS011;32541;46.298;11.506;2023-10-19T08:43:48;12.50;;;9.10;;
46781;SDS011;32541;46.298;11.506;2023-10-19T08:46:16;11.32;;;8.35;;
46781;SDS011;32541;46.298;11.506;2023-10-19T08:48:41;11.68;;;6.97;;
46781;SDS011;32541;46.298;11.506;2023-10-19T08:51:10;7.53;;;6.55;;
46781;SDS011;32541;46.298;11.506;2023-10-19T08:53:36;7.82;;;6.40;;
46781;SDS011;32541;46.298;11.506;2023-10-19T08:56:06;8.43;;;6.72;;
46781;SDS011;32541;46.298;11.506;2023-10-19T08:58:32;8.93;;;7.18;;
46781;SDS011;32541;46.298;11.506;2023-10-19T09:00:59;15.02;;;7.90;;
46781;SDS011;32541;46.298;11.506;2023-10-19T09:03:31;10.35;;;7.70;;
46781;SDS011;32541;46.298;11.506;2023-10-19T09:05:57;10.43;;;8.07;;
46781;SDS011;32541;46.298;11.506;2023-10-19T09:08:26;11.27;;;8.07;;
46781;SDS011;32541;46.298;11.506;2023-10-19T09:11:06;13.48;;;8.18;;
46781;SDS011;32541;46.298;11.506;2023-10-19T09:13:43;13.57;;;8.45;;
46781;SDS011;32541;46.298;11.506;2023-10-19T09:16:12;12.43;;;8.60;;
46781;SDS011;32541;46.298;11.506;2023-10-19T09:18:41;13.45;;;9.25;;
46781;SDS011;32541;46.298;11.506;2023-10-19T09:21:06;14.52;;;9.20;;
46781;SDS011;32541;46.298;11.506;2023-10-19T09:23:32;11.85;;;8.27;;
46781;SDS011;32541;46.298;11.506;2023-10-19T09:26:01;9.82;;;7.57;;
46781;SDS011;32541;46.298;11.506;2023-10-19T09:28:28;9.43;;;7.95;;
46781;SDS011;32541;46.298;11.506;2023-10-19T09:30:54;11.55;;;8.30;;
46781;SDS011;32541;46.298;11.506;2023-10-19T09:33:20;9.80;;;7.78;;
46781;SDS011;32541;46.298;11.506;2023-10-19T09:35:47;10.50;;;7.22;;
46781;SDS011;32541;46.298;11.506;2023-10-19T09:38:16;11.20;;;7.63;;
46781;SDS011;32541;46.298;11.506;2023-10-19T09:40:47;10.63;;;7.85;;
46781;SDS011;32541;46.298;11.506;2023-10-19T09:43:18;10.13;;;6.75;;
46781;SDS011;32541;46.298;11.506;2023-10-19T09:45:49;7.75;;;6.25;;
46781;SDS011;32541;46.298;11.506;2023-10-19T09:48:18;7.03;;;5.70;;
46781;SDS011;32541;46.298;11.506;2023-10-19T09:50:45;8.32;;;4.93;;
46781;SDS011;32541;46.298;11.506;2023-10-19T09:53:19;6.32;;;4.80;;
46781;SDS011;32541;46.298;11.506;2023-10-19T09:55:47;6.07;;;4.30;;
46781;SDS011;32541;46.298;11.506;2023-10-19T09:58:16;6.85;;;4.07;;
46781;SDS011;32541;46.298;11.506;2023-10-19T10:00:47;4.97;;;4.03;;
46781;SDS011;32541;46.298;11.506;2023-10-19T10:06:16;7.65;;;4.22;;
46781;SDS011;32541;46.298;11.506;2023-10-19T10:09:02;5.72;;;4.30;;
46781;SDS011;32541;46.298;11.506;2023-10-19T10:11:28;7.28;;;4.75;;
46781;SDS011;32541;46.298;11.506;2023-10-19T10:13:57;5.38;;;4.45;;
46781;SDS011;32541;46.298;11.506;2023-10-19T10:16:24;7.30;;;4.38;;
46781;SDS011;32541;46.298;11.506;2023-10-19T10:18:54;10.70;;;7.10;;
46781;SDS011;32541;46.298;11.506;2023-10-19T10:21:21;8.52;;;5.85;;
46781;SDS011;32541;46.298;11.506;2023-10-19T10:23:59;6.07;;;5.00;;
46781;SDS011;32541;46.298;11.506;2023-10-19T10:26:25;6.95;;;4.88;;
46781;SDS011;32541;46.298;11.506;2023-10-19T10:31:44;8.93;;;5.68;;
46781;SDS011;32541;46.298;11.506;2023-10-19T10:34:12;9.63;;;4.78;;
46781;SDS011;32541;46.298;11.506;2023-10-19T10:37:03;6.15;;;4.97;;
46781;SDS011;32541;46.298;11.506;2023-10-19T10:39:32;6.63;;;4.28;;
46781;SDS011;32541;46.298;11.506;2023-10-19T10:41:58;7.93;;;5.00;;
46781;SDS011;32541;46.298;11.506;2023-10-19T10:45:06;6.88;;;4.68;;
46781;SDS011;32541;46.298;11.506;2023-10-19T10:47:17;6.47;;;4.47;;
46781;SDS011;32541;46.298;11.506;2023-10-19T10:49:49;6.22;;;5.15;;
46781;SDS011;32541;46.298;11.506;2023-10-19T10:54:54;5.95;;;5.07;;
46781;SDS011;32541;46.298;11.506;2023-10-19T10:57:23;6.57;;;5.40;;
46781;SDS011;32541;46.298;11.506;2023-10-19T11:00:05;8.35;;;5.00;;
46781;SDS011;32541;46.298;11.506;2023-10-19T11:02:42;7.40;;;5.05;;
46781;SDS011;32541;46.298;11.506;2023-10-19T11:05:08;8.68;;;5.70;;
46781;SDS011;32541;46.298;11.506;2023-10-19T11:07:37;6.10;;;4.88;;
46781;SDS011;32541;46.298;11.506;2023-10-19T11:10:03;7.78;;;6.68;;
46781;SDS011;32541;46.298;11.506;2023-10-19T11:12:28;9.55;;;7.60;;
46781;SDS011;32541;46.298;11.506;2023-10-19T11:14:54;6.82;;;6.00;;
46781;SDS011;32541;46.298;11.506;2023-10-19T11:17:22;8.10;;;6.88;;
46781;SDS011;32541;46.298;11.506;2023-10-19T11:19:57;7.47;;;5.20;;
46781;SDS011;32541;46.298;11.506;2023-10-19T11:22:26;14.55;;;9.43;;
46781;SDS011;32541;46.298;11.506;2023-10-19T11:24:54;13.25;;;7.63;;
46781;SDS011;32541;46.298;11.506;2023-10-19T11:27:27;12.80;;;9.77;;
46781;SDS011;32541;46.298;11.506;2023-10-19T11:29:57;18.63;;;14.48;;
46781;SDS011;32541;46.298;11.506;2023-10-19T11:32:24;12.15;;;9.80;;
46781;SDS011;32541;46.298;11.506;2023-10-19T11:34:54;9.85;;;7.95;;
46781;SDS011;32541;46.298;11.506;2023-10-19T11:37:21;6.63;;;5.85;;
46781;SDS011;32541;46.298;11.506;2023-10-19T11:39:47;6.22;;;5.63;;
46781;SDS011;32541;46.298;11.506;2023-10-19T11:42:13;10.73;;;6.10;;
46781;SDS011;32541;46.298;11.506;2023-10-19T11:44:38;7.35;;;5.80;;
46781;SDS011;32541;46.298;11.506;2023-10-19T11:47:04;12.43;;;8.93;;
46781;SDS011;32541;46.298;11.506;2023-10-19T11:49:30;12.30;;;8.40;;
46781;SDS011;32541;46.298;11.506;2023-10-19T11:51:55;13.02;;;8.30;;
46781;SDS011;32541;46.298;11.506;2023-10-19T11:54:21;8.68;;;6.80;;
46781;SDS011;32541;46.298;11.506;2023-10-19T11:56:46;6.40;;;5.75;;
46781;SDS011;32541;46.298;11.506;2023-10-19T11:59:11;6.60;;;5.72;;
46781;SDS011;32541;46.298;11.506;2023-10-19T12:01:37;11.65;;;6.45;;
46781;SDS011;32541;46.298;11.506;2023-10-19T12:04:03;8.35;;;5.57;;
46781;SDS011;32541;46.298;11.506;2023-10-19T12:06:30;7.25;;;5.20;;
46781;SDS011;32541;46.298;11.506;2023-10-19T12:08:56;7.25;;;5.43;;
46781;SDS011;32541;46.298;11.506;2023-10-19T12:11:24;7.30;;;5.28;;
46781;SDS011;32541;46.298;11.506;2023-10-19T12:13:49;8.77;;;5.80;;
46781;SDS011;32541;46.298;11.506;2023-10-19T12:16:15;6.20;;;5.43;;
46781;SDS011;32541;46.298;11.506;2023-10-19T12:18:41;9.73;;;5.45;;
46781;SDS011;32541;46.298;11.506;2023-10-19T12:21:08;8.27;;;5.47;;
46781;SDS011;32541;46.298;11.506;2023-10-19T12:23:45;8.82;;;5.38;;
46781;SDS011;32541;46.298;11.506;2023-10-19T12:26:16;6.93;;;5.30;;
46781;SDS011;32541;46.298;11.506;2023-10-19T12:28:42;8.68;;;5.13;;
46781;SDS011;32541;46.298;11.506;2023-10-19T12:31:11;7.40;;;6.00;;
46781;SDS011;32541;46.298;11.506;2023-10-19T12:33:36;6.85;;;5.20;;
46781;SDS011;32541;46.298;11.506;2023-10-19T12:36:03;9.57;;;5.78;;
46781;SDS011;32541;46.298;11.506;2023-10-19T12:38:49;9.63;;;5.53;;
46781;SDS011;32541;46.298;11.506;2023-10-19T12:41:16;8.02;;;6.90;;
46781;SDS011;32541;46.298;11.506;2023-10-19T12:43:42;9.52;;;6.70;;
46781;SDS011;32541;46.298;11.506;2023-10-19T12:46:08;7.70;;;5.88;;
46781;SDS011;32541;46.298;11.506;2023-10-19T12:48:34;8.52;;;6.13;;
46781;SDS011;32541;46.298;11.506;2023-10-19T12:51:00;8.38;;;5.70;;
46781;SDS011;32541;46.298;11.506;2023-10-19T12:53:27;8.23;;;5.82;;
46781;SDS011;32541;46.298;11.506;2023-10-19T12:55:52;8.88;;;6.55;;
46781;SDS011;32541;46.298;11.506;2023-10-19T12:58:18;10.63;;;6.60;;
46781;SDS011;32541;46.298;11.506;2023-10-19T13:00:46;6.22;;;5.28;;
46781;SDS011;32541;46.298;11.506;2023-10-19T13:03:13;6.78;;;4.97;;
46781;SDS011;32541;46.298;11.506;2023-10-19T13:05:40;10.05;;;6.03;;
46781;SDS011;32541;46.298;11.506;2023-10-19T13:08:15;8.50;;;6.47;;
46781;SDS011;32541;46.298;11.506;2023-10-19T13:10:45;11.45;;;6.80;;
46781;SDS011;32541;46.298;11.506;2023-10-19T13:13:12;8.02;;;6.18;;
46781;SDS011;32541;46.298;11.506;2023-10-19T13:15:40;9.70;;;7.40;;
46781;SDS011;32541;46.298;11.506;2023-10-19T13:18:08;10.70;;;8.40;;
46781;SDS011;32541;46.298;11.506;2023-10-19T13:20:52;9.57;;;7.07;;
46781;SDS011;32541;46.298;11.506;2023-10-19T13:23:19;8.88;;;6.43;;
46781;SDS011;32541;46.298;11.506;2023-10-19T13:25:48;10.73;;;7.72;;
46781;SDS011;32541;46.298;11.506;2023-10-19T13:28:33;8.70;;;6.63;;
46781;SDS011;32541;46.298;11.506;2023-10-19T13:31:00;8.73;;;6.82;;
46781;SDS011;32541;46.298;11.506;2023-10-19T13:33:25;7.90;;;6.63;;
46781;SDS011;32541;46.298;11.506;2023-10-19T13:35:51;10.80;;;7.32;;
46781;SDS011;32541;46.298;11.506;2023-10-19T13:38:17;12.35;;;7.40;;
46781;SDS011;32541;46.298;11.506;2023-10-19T13:40:45;9.50;;;7.82;;
46781;SDS011;32541;46.298;11.506;2023-10-19T13:43:11;10.50;;;7.70;;
46781;SDS011;32541;46.298;11.506;2023-10-19T13:45:42;10.90;;;8.02;;
46781;SDS011;32541;46.298;11.506;2023-10-19T13:48:11;11.10;;;7.85;;
46781;SDS011;32541;46.298;11.506;2023-10-19T13:50:47;11.52;;;9.00;;
46781;SDS011;32541;46.298;11.506;2023-10-19T13:53:14;11.48;;;8.57;;
46781;SDS011;32541;46.298;11.506;2023-10-19T13:55:40;11.23;;;10.07;;
46781;SDS011;32541;46.298;11.506;2023-10-19T13:58:06;11.57;;;9.13;;
46781;SDS011;32541;46.298;11.506;2023-10-19T14:00:32;10.07;;;8.55;;
46781;SDS011;32541;46.298;11.506;2023-10-19T14:03:06;15.43;;;8.38;;
46781;SDS011;32541;46.298;11.506;2023-10-19T14:05:35;10.25;;;8.18;;
46781;SDS011;32541;46.298;11.506;2023-10-19T14:08:02;9.50;;;7.05;;
46781;SDS011;32541;46.298;11.506;2023-10-19T14:10:29;8.40;;;6.35;;
46781;SDS011;32541;46.298;11.506;2023-10-19T14:12:55;7.32;;;6.22;;
46781;SDS011;32541;46.298;11.506;2023-10-19T14:15:21;9.80;;;6.93;;
46781;SDS011;32541;46.298;11.506;2023-10-19T14:17:47;8.90;;;6.22;;
46781;SDS011;32541;46.298;11.506;2023-10-19T14:20:14;5.97;;;5.28;;
46781;SDS011;32541;46.298;11.506;2023-10-19T14:22:44;7.07;;;5.85;;
46781;SDS011;32541;46.298;11.506;2023-10-19T14:25:18;7.22;;;6.30;;
46781;SDS011;32541;46.298;11.506;2023-10-19T14:27:47;7.53;;;4.93;;
46781;SDS011;32541;46.298;11.506;2023-10-19T14:30:14;5.88;;;4.72;;
46781;SDS011;32541;46.298;11.506;2023-10-19T14:32:41;7.57;;;5.75;;
46781;SDS011;32541;46.298;11.506;2023-10-19T14:35:07;7.82;;;5.90;;
46781;SDS011;32541;46.298;11.506;2023-10-19T14:37:41;9.27;;;5.72;;
46781;SDS011;32541;46.298;11.506;2023-10-19T14:40:17;8.98;;;7.50;;
46781;SDS011;32541;46.298;11.506;2023-10-19T14:42:46;12.25;;;9.68;;